Evergreen, North Carolina
Current Conditions -  °F | °C
As of 6:15 PM on Friday 31 Oct 2014 (Local Time) from KCPC Reporting Station
Clear Clear  
Wind Chill: 60°   Ceiling: Unl
Heat Index: 60°   Visibility: 10mi
Dew Point: 46°   Wind: 0mph
Humidity: 60%   Direction: NA
Pressure: 29.79"   Gusts: NA
Location:  34.41°N, 78.9°W
Report Text: KCPC 312215Z AUTO 00000KT 10SM CLR 16/08 A2979 RMK AO2 T01550077
Loading
Personal Weather Stations






























Interactive Weather Map
Tropical Storm Tracking
New forecast layout! Learn more

10-Day Weather Forecast

Advertisements
Track Severe Weather on mobile